Time;durP1;ratioP1;P1;durP2;ratioP2;P2;SDS_P1;SDS_P2;PMS_P1;PMS_P2;Temp;Humidity;BMP_temperature;BMP_pressure;BME280_temperature;BME280_humidity;BME280_pressure;Samples;Min_cycle;Max_cycle;Signal;HPM_P1;HPM_P2
2023/12/13 00:02:16;;;;;;;;;6.00;5.00;;;;;21.78;50.09;99934.46;111982;1249;20330;-31
2023/12/13 00:04:44;;;;;;;;;7.00;5.00;;;;;21.78;50.21;99931.24;111962;1249;20062;-31
2023/12/13 00:07:11;;;;;;;;;5.00;4.00;;;;;21.78;50.11;99942.25;112026;1250;20828;-31
2023/12/13 00:09:39;;;;;;;;;4.00;4.00;;;;;21.79;49.95;99954.45;111932;1264;18176;-31
2023/12/13 00:12:06;;;;;;;;;4.00;4.00;;;;;21.78;50.09;99949.34;111994;1264;18641;-31
2023/12/13 00:14:33;;;;;;;;;5.00;4.00;;;;;21.78;50.21;99945.75;111967;1264;19329;-30
2023/12/13 00:17:01;;;;;;;;;8.00;7.00;;;;;21.78;50.11;99939.42;112011;1250;20745;-31
2023/12/13 00:19:28;;;;;;;;;5.00;5.00;;;;;21.78;49.97;99938.50;111962;1249;18623;-31
2023/12/13 00:21:56;;;;;;;;;2.67;2.00;;;;;21.78;50.14;99933.10;112041;1256;20569;-31
2023/12/13 00:24:23;;;;;;;;;6.33;4.33;;;;;21.78;49.74;99931.85;111957;1251;19578;-31
2023/12/13 00:26:50;;;;;;;;;4.00;4.00;;;;;21.77;49.90;99936.59;112000;1264;19984;-30
2023/12/13 00:29:18;;;;;;;;;4.00;4.00;;;;;21.78;49.90;99936.30;111925;1250;20969;-31
2023/12/13 00:31:46;;;;;;;;;2.00;2.00;;;;;21.77;49.93;99932.52;112013;1261;19654;-30
2023/12/13 00:34:14;;;;;;;;;4.50;3.00;;;;;21.77;50.12;99925.30;112032;1264;20024;-31
2023/12/13 00:36:41;;;;;;;;;7.00;7.00;;;;;21.77;49.94;99923.95;112054;1249;20738;-31
2023/12/13 00:39:09;;;;;;;;;4.50;4.50;;;;;21.76;49.80;99926.20;111985;1259;19566;-31
2023/12/13 00:41:36;;;;;;;;;4.00;4.00;;;;;21.77;49.75;99929.30;112047;1249;21135;-31
2023/12/13 00:44:04;;;;;;;;;4.00;4.00;;;;;21.76;49.74;99924.94;111970;1250;20694;-31
2023/12/13 00:46:31;;;;;;;;;4.67;4.33;;;;;21.77;49.59;99920.35;112063;1251;19608;-31
2023/12/13 00:48:59;;;;;;;;;4.00;4.00;;;;;21.76;49.73;99915.57;111965;1251;19925;-31
2023/12/13 00:51:26;;;;;;;;;4.00;4.00;;;;;21.76;49.83;99909.14;112062;1250;22016;-31
2023/12/13 00:53:54;;;;;;;;;4.00;4.00;;;;;21.76;49.93;99908.05;111955;1251;19685;-31
2023/12/13 00:56:21;;;;;;;;;4.00;4.00;;;;;21.75;49.80;99912.16;112093;1249;20195;-31
2023/12/13 00:58:48;;;;;;;;;5.00;4.50;;;;;21.76;49.64;99908.77;111953;1264;19364;-31
2023/12/13 01:01:16;;;;;;;;;4.00;4.00;;;;;21.75;49.49;99896.40;112079;1264;19540;-31
2023/12/13 01:03:44;;;;;;;;;5.00;4.00;;;;;21.75;49.59;99897.21;111937;1264;18596;-31
2023/12/13 01:06:12;;;;;;;;;5.00;4.00;;;;;21.75;49.70;99904.67;112062;1249;20780;-31
2023/12/13 01:08:39;;;;;;;;;7.00;5.00;;;;;21.75;49.74;99899.45;112008;1264;18160;-31
2023/12/13 01:11:07;;;;;;;;;4.50;4.00;;;;;21.74;49.53;99890.52;112038;1249;19990;-31
2023/12/13 01:13:34;;;;;;;;;4.00;4.00;;;;;21.74;49.69;99882.08;111960;1264;19339;-31
2023/12/13 01:16:01;;;;;;;;;4.00;2.00;;;;;21.73;49.66;99881.05;112056;1264;19542;-31
2023/12/13 01:18:29;;;;;;;;;5.00;4.50;;;;;21.74;49.49;99888.14;111966;1264;18631;-31
2023/12/13 01:20:56;;;;;;;;;4.00;2.00;;;;;21.74;49.55;99884.96;112058;1264;20633;-31
2023/12/13 01:23:24;;;;;;;;;4.00;4.00;;;;;21.73;49.65;99879.08;111949;1264;18126;-31
2023/12/13 01:25:51;;;;;;;;;5.00;5.00;;;;;21.73;49.48;99872.29;112115;1264;18646;-31
2023/12/13 01:28:18;;;;;;;;;4.00;4.00;;;;;21.72;49.47;99873.56;111989;1264;19526;-31
2023/12/13 01:30:46;;;;;;;;;4.00;4.00;;;;;21.72;49.55;99873.77;112106;1249;19646;-31
2023/12/13 01:33:13;;;;;;;;;5.00;4.00;;;;;21.73;49.35;99877.14;111983;1251;20061;-31
2023/12/13 01:35:41;;;;;;;;;4.00;4.00;;;;;21.74;49.55;99871.78;112116;1264;20642;-31
2023/12/13 01:38:08;;;;;;;;;4.00;4.00;;;;;21.72;49.32;99858.61;111970;1251;19601;-31
2023/12/13 01:40:35;;;;;;;;;5.00;4.00;;;;;21.72;49.22;99854.73;111790;1264;365359;-31
2023/12/13 01:43:03;;;;;;;;;4.00;2.00;;;;;21.73;49.37;99855.93;112002;1250;20890;-31
2023/12/13 01:45:30;;;;;;;;;4.00;4.00;;;;;21.73;49.35;99861.21;112056;1251;19644;-31
2023/12/13 01:47:58;;;;;;;;;7.00;4.50;;;;;21.74;49.49;99866.65;112050;1264;18806;-31
2023/12/13 01:50:25;;;;;;;;;4.00;4.00;;;;;21.73;49.50;99858.65;112089;1249;20741;-31
2023/12/13 01:52:52;;;;;;;;;4.50;4.00;;;;;21.71;49.50;99855.46;112050;1250;19618;-30
2023/12/13 01:55:20;;;;;;;;;5.00;5.00;;;;;21.73;49.38;99853.37;112049;1251;21262;-31
2023/12/13 01:57:47;;;;;;;;;2.00;2.00;;;;;21.72;49.26;99848.70;112052;1250;20779;-31
2023/12/13 02:00:15;;;;;;;;;4.00;4.00;;;;;21.73;49.25;99850.20;112082;1250;19608;-31
2023/12/13 02:02:42;;;;;;;;;2.00;2.00;;;;;21.72;49.27;99855.77;112083;1264;20372;-30
2023/12/13 02:05:10;;;;;;;;;4.00;2.00;;;;;21.73;49.22;99863.02;112040;1264;22218;-31
2023/12/13 02:07:37;;;;;;;;;4.00;4.00;;;;;21.73;49.20;99861.77;112070;1264;18142;-31
2023/12/13 02:10:06;;;;;;;;;4.00;2.00;;;;;21.72;49.26;99855.18;111995;1249;20148;-31
2023/12/13 02:12:33;;;;;;;;;4.00;4.00;;;;;21.72;49.30;99851.52;111978;1264;19370;-31
2023/12/13 02:15:01;;;;;;;;;3.00;3.00;;;;;21.70;48.97;99848.17;112126;1249;18147;-31
2023/12/13 02:17:29;;;;;;;;;4.00;4.00;;;;;21.70;49.23;99850.24;111979;1264;20159;-31
2023/12/13 02:19:56;;;;;;;;;4.00;4.00;;;;;21.71;49.15;99848.17;112121;1249;20964;-31
2023/12/13 02:22:23;;;;;;;;;4.00;4.00;;;;;21.71;49.36;99845.66;111978;1264;18288;-30
2023/12/13 02:24:51;;;;;;;;;2.00;2.00;;;;;21.72;49.04;99843.09;112144;1250;20066;-30
2023/12/13 02:27:21;;;;;;;;;2.00;2.00;;;;;21.71;49.03;99839.83;111975;1264;20679;-31
2023/12/13 02:29:48;;;;;;;;;4.00;2.00;;;;;21.69;48.98;99840.34;112033;1251;18148;-30
2023/12/13 02:32:16;;;;;;;;;2.00;2.00;;;;;21.70;49.17;99847.20;112142;1257;18710;-30
2023/12/13 02:34:43;;;;;;;;;7.00;5.00;;;;;21.69;48.96;99848.25;112000;1250;20781;-31
2023/12/13 02:37:10;;;;;;;;;5.00;2.00;;;;;21.69;48.99;99848.63;112115;1256;19608;-30
2023/12/13 02:39:38;;;;;;;;;2.00;2.00;;;;;21.69;48.95;99845.04;112008;1264;18638;-31
2023/12/13 02:42:05;;;;;;;;;2.00;2.00;;;;;21.69;49.15;99843.08;112010;1249;20806;-30
2023/12/13 02:44:33;;;;;;;;;4.00;2.00;;;;;21.69;49.16;99839.86;112013;1264;18652;-30
2023/12/13 02:47:01;;;;;;;;;;;;;;;21.67;48.81;99836.67;111958;1264;20010;-30
2023/12/13 02:49:28;;;;;;;;;5.00;4.00;;;;;21.68;49.02;99836.71;112031;1251;20643;-30
2023/12/13 02:51:56;;;;;;;;;4.50;4.00;;;;;21.67;49.21;99838.75;112038;1264;19394;-30
2023/12/13 02:54:23;;;;;;;;;4.00;4.00;;;;;21.67;48.93;99842.45;112002;1249;18649;-30
2023/12/13 02:56:50;;;;;;;;;4.00;2.67;;;;;21.68;49.08;99842.55;112000;1260;19919;-30
2023/12/13 02:59:18;;;;;;;;;5.00;5.00;;;;;21.67;49.12;99843.48;112027;1264;19630;-30
2023/12/13 03:01:45;;;;;;;;;4.00;4.00;;;;;21.66;48.70;99845.63;111940;1264;19945;-30
2023/12/13 03:04:13;;;;;;;;;5.00;5.00;;;;;21.66;49.01;99847.38;112015;1264;19410;-30
2023/12/13 03:06:40;;;;;;;;;5.00;5.00;;;;;21.66;48.71;99844.58;111946;1264;19712;-30
2023/12/13 03:09:07;;;;;;;;;4.00;4.00;;;;;21.67;48.80;99845.33;112031;1264;19916;-31
2023/12/13 03:11:35;;;;;;;;;3.00;3.00;;;;;21.68;48.68;99843.15;111965;1249;21144;-31
2023/12/13 03:14:02;;;;;;;;;2.00;2.00;;;;;21.66;48.95;99839.95;112044;1251;19572;-30
2023/12/13 03:16:30;;;;;;;;;4.00;4.00;;;;;21.67;48.61;99837.60;111982;1248;20089;-30
2023/12/13 03:18:57;;;;;;;;;4.00;4.00;;;;;21.67;48.64;99832.15;112057;1264;19394;-30
2023/12/13 03:21:24;;;;;;;;;4.00;4.00;;;;;21.67;48.93;99830.73;111940;1264;18838;-30
2023/12/13 03:23:52;;;;;;;;;2.00;2.00;;;;;21.67;48.93;99825.61;112113;1248;20350;-30
2023/12/13 03:26:19;;;;;;;;;6.00;5.00;;;;;21.65;48.65;99819.52;111966;1264;19373;-30
2023/12/13 03:28:47;;;;;;;;;4.00;4.00;;;;;21.65;48.79;99815.38;112067;1264;19585;-31
2023/12/13 03:31:14;;;;;;;;;4.00;2.00;;;;;21.66;48.75;99814.06;111916;1264;18988;-31
2023/12/13 03:33:41;;;;;;;;;6.00;4.00;;;;;21.67;48.63;99816.17;112083;1249;20818;-30
2023/12/13 03:36:09;;;;;;;;;4.00;4.00;;;;;21.67;48.73;99817.48;111938;1264;18767;-30
2023/12/13 03:38:37;;;;;;;;;5.00;4.50;;;;;21.66;48.73;99814.98;112036;1260;19974;-30
2023/12/13 03:41:04;;;;;;;;;4.00;4.00;;;;;21.66;48.60;99811.29;111955;1249;20671;-30
2023/12/13 03:43:32;;;;;;;;;4.00;4.00;;;;;21.66;48.80;99808.17;112083;1264;18189;-30
2023/12/13 03:45:59;;;;;;;;;2.00;2.00;;;;;21.65;48.49;99804.10;111948;1264;18608;-30
2023/12/13 03:48:26;;;;;;;;;4.33;4.00;;;;;21.65;48.60;99803.62;112025;1249;21853;-30
2023/12/13 03:50:54;;;;;;;;;4.00;4.00;;;;;21.64;48.63;99807.77;111936;1264;19533;-30
2023/12/13 03:53:21;;;;;;;;;6.33;4.67;;;;;21.65;48.45;99804.42;111970;1264;18626;-31
2023/12/13 03:55:49;;;;;;;;;5.00;4.00;;;;;21.65;48.58;99804.96;111983;1264;21127;-31
2023/12/13 03:58:16;;;;;;;;;4.00;4.00;;;;;21.66;48.56;99802.73;111905;1249;20905;-31
2023/12/13 04:00:43;;;;;;;;;4.00;4.00;;;;;21.65;48.54;99796.81;111977;1264;18631;-30
2023/12/13 04:03:11;;;;;;;;;5.00;5.00;;;;;21.64;48.32;99798.73;111962;1264;19267;-31
2023/12/13 04:05:38;;;;;;;;;5.00;5.00;;;;;21.64;48.47;99797.55;111963;1248;19575;-30
2023/12/13 04:08:06;;;;;;;;;5.00;4.00;;;;;21.65;48.59;99794.95;111969;1264;18640;-30
2023/12/13 04:10:33;;;;;;;;;2.00;2.00;;;;;21.63;48.51;99801.63;111983;1249;20904;-31
2023/12/13 04:13:01;;;;;;;;;2.00;2.00;;;;;21.63;48.42;99797.44;111985;1248;19593;-31
2023/12/13 04:15:28;;;;;;;;;5.00;5.00;;;;;21.63;48.63;99789.59;111967;1256;19956;-30
2023/12/13 04:17:56;;;;;;;;;4.50;4.00;;;;;21.62;48.52;99786.45;111958;1248;20736;-30
2023/12/13 04:20:23;;;;;;;;;5.00;5.00;;;;;21.63;48.65;99785.56;111949;1256;18084;-30
2023/12/13 04:22:50;;;;;;;;;4.00;4.00;;;;;21.63;48.36;99786.05;111954;1264;18778;-31
2023/12/13 04:25:18;;;;;;;;;4.00;4.00;;;;;21.62;48.48;99785.02;111989;1248;19516;-30
2023/12/13 04:27:47;;;;;;;;;10.00;5.00;;;;;21.62;48.49;99784.46;111969;1250;19608;-30
2023/12/13 04:30:14;;;;;;;;;7.00;5.00;;;;;21.62;48.43;99785.72;111978;1264;20133;-30
2023/12/13 04:32:42;;;;;;;;;7.00;7.00;;;;;21.62;48.48;99788.18;111928;1249;21983;-30
2023/12/13 04:35:09;;;;;;;;;7.00;7.00;;;;;21.63;48.18;99790.95;111945;1248;18291;-30
2023/12/13 04:37:37;;;;;;;;;5.00;5.00;;;;;21.62;48.34;99785.02;111944;1264;18787;-30
2023/12/13 04:40:06;;;;;;;;;6.00;6.00;;;;;21.61;48.31;99787.11;111980;1250;20783;-30
2023/12/13 04:42:33;;;;;;;;;5.67;5.00;;;;;21.61;48.35;99787.50;111986;1249;19654;-31
2023/12/13 04:45:00;;;;;;;;;7.00;5.00;;;;;21.62;48.40;99787.73;111972;1264;18740;-31
2023/12/13 04:47:28;;;;;;;;;5.00;5.00;;;;;21.63;48.37;99786.05;112027;1264;19406;-30
2023/12/13 04:49:55;;;;;;;;;6.00;5.00;;;;;21.61;48.14;99779.42;112044;1264;18191;-30
2023/12/13 04:52:23;;;;;;;;;7.00;7.00;;;;;21.62;48.33;99782.09;112101;1256;18717;-30
2023/12/13 04:54:50;;;;;;;;;6.00;5.00;;;;;21.63;48.34;99782.55;112055;1249;20798;-30
2023/12/13 04:57:18;;;;;;;;;5.00;5.00;;;;;21.68;47.91;99778.42;112025;1264;18149;-30
2023/12/13 04:59:46;;;;;;;;;7.00;7.00;;;;;21.68;48.05;99782.31;112020;1264;18619;-30
2023/12/13 05:02:13;;;;;;;;;13.00;10.00;;;;;21.65;48.09;99776.92;111987;1249;20812;-30
2023/12/13 05:04:40;;;;;;;;;7.00;7.00;;;;;21.67;47.88;99779.21;111971;1249;19569;-31
2023/12/13 05:07:09;;;;;;;;;8.00;7.00;;;;;21.67;47.78;99775.46;112020;1264;18837;-30
2023/12/13 05:09:36;;;;;;;;;10.00;10.00;;;;;21.66;47.78;99778.04;112012;1248;19354;-30
2023/12/13 05:12:03;;;;;;;;;11.67;10.00;;;;;21.66;47.59;99774.94;111959;1249;19570;-30
2023/12/13 05:14:31;;;;;;;;;16.00;14.00;;;;;21.68;47.73;99774.51;112019;1248;20101;-30
2023/12/13 05:16:58;;;;;;;;;13.50;11.50;;;;;21.66;47.59;99770.67;111975;1264;19245;-30
2023/12/13 05:19:26;;;;;;;;;11.00;11.00;;;;;21.66;47.65;99768.77;112027;1249;19952;-30
2023/12/13 05:21:53;;;;;;;;;14.00;13.00;;;;;21.64;47.54;99770.65;111969;1256;21048;-30
2023/12/13 05:24:20;;;;;;;;;10.00;10.00;;;;;21.64;47.33;99768.75;112015;1249;20895;-31
2023/12/13 05:26:48;;;;;;;;;11.00;10.00;;;;;21.65;47.14;99769.45;111928;1248;19959;-31
2023/12/13 05:29:15;;;;;;;;;10.50;10.00;;;;;21.63;47.02;99771.48;111993;1256;20503;-30
2023/12/13 05:31:43;;;;;;;;;10.50;9.00;;;;;21.65;47.16;99774.51;111945;1264;19336;-31
2023/12/13 05:34:10;;;;;;;;;10.00;8.00;;;;;21.64;47.01;99772.40;111989;1256;18553;-30
2023/12/13 05:36:38;;;;;;;;;11.00;10.00;;;;;21.64;47.19;99773.05;111915;1264;21344;-31
2023/12/13 05:39:05;;;;;;;;;11.00;11.00;;;;;21.64;47.01;99774.27;112020;1249;21118;-30
2023/12/13 05:41:33;;;;;;;;;10.00;8.00;;;;;21.63;47.14;99774.27;111938;1264;19944;-30
2023/12/13 05:44:00;;;;;;;;;8.00;7.50;;;;;21.63;47.00;99773.45;112022;1256;20108;-30
2023/12/13 05:46:33;;;;;;;;;10.67;8.00;;;;;21.63;46.68;99771.81;112003;1264;21111;-31
2023/12/13 05:49:01;;;;;;;;;10.00;8.00;;;;;21.64;47.03;99765.15;112062;1264;18178;-30
2023/12/13 05:51:28;;;;;;;;;8.00;8.00;;;;;21.64;46.82;99763.08;111912;1264;19102;-30
2023/12/13 05:53:56;;;;;;;;;7.50;7.50;;;;;21.66;46.86;99761.79;112031;1248;20843;-31
2023/12/13 05:56:24;;;;;;;;;10.00;10.00;;;;;21.64;46.86;99756.64;111941;1249;19637;-31
2023/12/13 05:58:51;;;;;;;;;8.00;8.00;;;;;21.63;46.68;99756.78;112039;1249;20117;-31
2023/12/13 06:01:19;;;;;;;;;7.67;7.67;;;;;21.63;46.48;99764.95;111952;1264;19340;-30
2023/12/13 06:03:46;;;;;;;;;7.00;7.00;;;;;21.61;46.75;99769.45;112056;1250;20790;-31
2023/12/13 06:06:13;;;;;;;;;10.00;8.00;;;;;21.59;46.53;99766.38;111913;1264;19897;-31
2023/12/13 06:08:41;;;;;;;;;7.00;5.00;;;;;21.59;46.65;99764.04;112067;1256;21260;-30
2023/12/13 06:11:09;;;;;;;;;4.67;4.67;;;;;21.58;46.60;99763.41;111942;1264;19918;-30
2023/12/13 06:13:36;;;;;;;;;7.00;7.00;;;;;21.58;46.73;99763.35;112029;1264;19945;-31
2023/12/13 06:16:04;;;;;;;;;8.00;7.00;;;;;21.59;46.69;99765.02;111946;1264;19370;-31
2023/12/13 06:18:31;;;;;;;;;8.00;8.00;;;;;21.58;46.96;99771.14;112058;1250;19502;-30
2023/12/13 06:20:59;;;;;;;;;10.00;8.00;;;;;21.58;46.82;99766.52;111923;1264;21082;-30
2023/12/13 06:23:26;;;;;;;;;9.00;6.00;;;;;21.60;46.80;99762.88;112034;1250;20816;-30
2023/12/13 06:25:54;;;;;;;;;5.00;5.00;;;;;21.58;46.78;99763.89;111943;1264;18570;-30
2023/12/13 06:28:22;;;;;;;;;5.00;5.00;;;;;21.69;46.88;99762.23;112078;1264;19063;-30
2023/12/13 06:30:49;;;;;;;;;5.00;5.00;;;;;21.73;46.60;99760.91;111966;1264;19722;-30
2023/12/13 06:33:18;;;;;;;;;5.00;5.00;;;;;21.66;47.31;99762.39;112047;1264;18201;-30
2023/12/13 06:35:46;;;;;;;;;6.00;5.00;;;;;21.76;47.11;99757.90;112075;1264;19984;-30
2023/12/13 06:38:13;;;;;;;;;8.00;5.00;;;;;21.75;47.36;99755.98;111954;1264;20863;-30
2023/12/13 06:40:41;;;;;;;;;5.00;5.00;;;;;21.77;47.47;99751.13;112044;1249;20856;-30
2023/12/13 06:43:08;;;;;;;;;7.00;5.00;;;;;21.76;47.84;99752.50;111992;1264;19947;-29
2023/12/13 06:45:35;;;;;;;;;7.00;7.00;;;;;21.73;47.96;99753.94;112043;1248;20696;-30
2023/12/13 06:48:03;;;;;;;;;4.00;4.00;;;;;21.73;47.91;99757.52;112003;1264;18195;-30
2023/12/13 06:50:30;;;;;;;;;7.00;7.00;;;;;21.79;48.11;99760.96;112036;1264;18615;-30
2023/12/13 06:52:58;;;;;;;;;5.00;5.00;;;;;21.80;48.28;99757.99;111996;1250;20805;-30
2023/12/13 06:55:26;;;;;;;;;5.00;5.00;;;;;21.80;48.24;99752.48;112069;1248;19545;-30
2023/12/13 06:57:53;;;;;;;;;9.00;7.50;;;;;21.81;48.14;99755.16;112014;1248;18533;-30
2023/12/13 07:00:21;;;;;;;;;10.50;8.00;;;;;21.77;47.98;99755.65;112063;1256;20880;-30
2023/12/13 07:02:49;;;;;;;;;8.00;6.33;;;;;21.76;47.83;99756.77;111953;1264;18933;-30
2023/12/13 07:05:17;;;;;;;;;10.00;8.00;;;;;21.81;47.84;99762.56;112096;1264;18810;-30
2023/12/13 07:07:46;;;;;;;;;8.00;7.00;;;;;21.80;47.68;99756.80;111926;1264;19556;-30
2023/12/13 07:10:14;;;;;;;;;9.00;8.00;;;;;21.80;47.51;99757.90;111952;1264;18711;-30
2023/12/13 07:12:41;;;;;;;;;7.67;7.00;;;;;21.78;47.30;99750.50;112057;1264;21130;-30
2023/12/13 07:15:10;;;;;;;;;14.00;11.00;;;;;21.81;47.23;99750.02;111916;1264;19759;-29
2023/12/13 07:17:38;;;;;;;;;10.00;9.33;;;;;21.81;47.25;99741.23;111998;1264;19742;-30
2023/12/13 07:20:06;;;;;;;;;13.50;11.00;;;;;21.80;46.88;99739.40;112072;1264;19978;-30
2023/12/13 07:22:33;;;;;;;;;12.00;11.00;;;;;21.82;46.74;99732.66;111970;1250;20879;-30
2023/12/13 07:25:01;;;;;;;;;9.00;9.00;;;;;21.79;46.86;99731.63;112058;1264;19877;-31
2023/12/13 07:27:28;;;;;;;;;8.00;8.00;;;;;21.72;46.92;99739.17;112012;1248;18588;-31
2023/12/13 07:29:55;;;;;;;;;12.50;12.00;;;;;21.70;46.77;99737.70;112073;1248;21281;-31
2023/12/13 07:32:23;;;;;;;;;8.00;8.00;;;;;21.73;46.37;99738.12;111998;1264;18104;-31
2023/12/13 07:34:50;;;;;;;;;7.33;7.33;;;;;21.72;46.44;99731.05;112008;1249;19609;-31
2023/12/13 07:37:18;;;;;;;;;10.00;10.00;;;;;21.73;46.46;99730.92;112015;1256;19339;-30
2023/12/13 07:39:45;;;;;;;;;7.00;7.00;;;;;21.70;46.52;99732.72;111956;1249;19494;-31
2023/12/13 07:42:12;;;;;;;;;7.67;7.00;;;;;21.73;46.40;99733.27;112012;1249;20036;-30
2023/12/13 07:44:40;;;;;;;;;7.00;5.00;;;;;21.77;46.60;99733.23;111944;1249;20696;-31
2023/12/13 07:47:08;;;;;;;;;8.00;7.00;;;;;21.74;46.75;99735.15;112027;1249;20792;-30
2023/12/13 07:49:35;;;;;;;;;7.00;7.00;;;;;21.76;46.92;99732.39;111927;1264;21088;-30
2023/12/13 07:52:04;;;;;;;;;7.00;5.00;;;;;21.80;47.02;99732.76;112025;1264;20894;-30
2023/12/13 07:54:31;;;;;;;;;5.00;5.00;;;;;21.81;47.20;99730.66;112110;1259;18144;-31
2023/12/13 07:56:59;;;;;;;;;9.00;7.00;;;;;21.82;47.44;99730.44;111961;1264;20014;-30
2023/12/13 07:59:26;;;;;;;;;5.00;5.00;;;;;21.77;48.05;99729.31;112094;1248;20805;-30
2023/12/13 08:01:53;;;;;;;;;8.00;7.00;;;;;21.73;48.55;99728.09;111970;1249;19999;-29
2023/12/13 08:04:21;;;;;;;;;10.00;8.00;;;;;21.75;48.65;99732.63;112132;1250;20064;-31
2023/12/13 08:06:48;;;;;;;;;5.00;5.00;;;;;21.81;48.48;99735.23;111969;1248;22073;-30
2023/12/13 08:09:18;;;;;;;;;6.67;5.67;;;;;21.84;48.22;99730.66;112040;1256;19871;-30
2023/12/13 08:11:46;;;;;;;;;8.00;7.00;;;;;21.77;48.65;99733.58;112025;1248;19850;-30
2023/12/13 08:14:14;;;;;;;;;7.50;7.00;;;;;21.75;48.71;99734.59;111977;1248;20811;-30
2023/12/13 08:16:42;;;;;;;;;4.67;4.67;;;;;21.74;48.83;99730.57;112037;1264;19711;-30
2023/12/13 08:19:10;;;;;;;;;4.67;4.33;;;;;21.75;48.85;99729.25;111959;1264;18986;-30
2023/12/13 08:21:40;;;;;;;;;5.00;5.00;;;;;21.73;48.88;99728.30;112041;1250;20760;-30
2023/12/13 08:24:08;;;;;;;;;4.00;4.00;;;;;21.73;48.90;99727.86;112009;1248;19757;-30
2023/12/13 08:26:35;;;;;;;;;7.50;7.00;;;;;21.73;49.06;99729.63;111954;1264;18830;-30
2023/12/13 08:29:03;;;;;;;;;7.00;5.00;;;;;21.74;49.13;99731.66;112007;1249;20781;-30
2023/12/13 08:31:31;;;;;;;;;5.00;5.00;;;;;21.78;49.28;99725.38;111909;1256;19412;-30
2023/12/13 08:33:59;;;;;;;;;4.00;4.00;;;;;21.78;49.26;99724.49;112006;1250;20280;-31
2023/12/13 08:36:27;;;;;;;;;4.00;4.00;;;;;21.78;49.21;99724.71;112074;1264;20684;-31
2023/12/13 08:38:55;;;;;;;;;5.00;5.00;;;;;21.80;49.14;99725.71;111943;1249;18186;-30
2023/12/13 08:41:22;;;;;;;;;4.33;4.00;;;;;21.86;48.99;99723.05;112026;1264;18780;-31
2023/12/13 08:43:50;;;;;;;;;7.00;6.00;;;;;21.87;48.56;99728.36;111962;1264;19416;-31
2023/12/13 08:46:17;;;;;;;;;7.00;7.00;;;;;21.85;48.73;99721.15;112033;1264;18612;-31
2023/12/13 08:48:45;;;;;;;;;11.50;9.50;;;;;21.82;48.84;99725.89;111974;1251;20042;-31
2023/12/13 08:51:13;;;;;;;;;10.00;10.00;;;;;21.79;47.94;99725.52;112009;1264;19319;-31
2023/12/13 08:53:40;;;;;;;;;14.00;11.00;;;;;21.73;46.76;99723.84;111970;1264;19939;-30
2023/12/13 08:56:09;;;;;;;;;10.50;8.00;;;;;21.73;47.40;99725.64;111983;1264;20011;-30
2023/12/13 08:58:37;;;;;;;;;11.00;10.33;;;;;21.74;47.40;99722.02;111953;1264;20589;-31
2023/12/13 09:01:04;;;;;;;;;15.00;11.00;;;;;21.72;47.47;99721.12;111941;1250;19882;-31
2023/12/13 09:03:32;;;;;;;;;10.00;10.00;;;;;21.75;47.08;99722.34;111958;1264;20046;-31
2023/12/13 09:05:59;;;;;;;;;13.00;11.00;;;;;21.76;47.31;99726.55;111950;1264;21203;-31
2023/12/13 09:08:27;;;;;;;;;13.00;13.00;;;;;21.76;47.42;99725.45;111966;1249;18914;-31
2023/12/13 09:10:55;;;;;;;;;11.00;10.00;;;;;21.73;47.56;99725.80;111945;1264;20045;-31
2023/12/13 09:13:22;;;;;;;;;14.00;13.00;;;;;21.75;47.27;99722.34;112015;1250;20839;-31
2023/12/13 09:15:49;;;;;;;;;10.00;10.00;;;;;21.74;47.53;99720.43;111944;1264;21274;-30
2023/12/13 09:18:17;;;;;;;;;13.00;13.00;;;;;21.75;47.47;99719.23;111970;1264;18736;-30
2023/12/13 09:20:45;;;;;;;;;13.00;13.00;;;;;21.74;47.26;99720.33;111944;1264;19777;-30
2023/12/13 09:23:13;;;;;;;;;10.00;10.00;;;;;21.76;47.79;99718.82;111994;1264;19886;-30
2023/12/13 09:25:40;;;;;;;;;13.00;11.00;;;;;21.74;47.93;99712.48;111999;1251;21223;-31
2023/12/13 09:28:08;;;;;;;;;11.00;10.00;;;;;21.80;47.76;99716.11;112025;1264;19391;-30
2023/12/13 09:30:35;;;;;;;;;11.00;9.33;;;;;21.81;47.76;99716.10;112015;1264;19898;-31
2023/12/13 09:33:02;;;;;;;;;13.00;11.00;;;;;21.79;47.96;99715.33;112031;1248;18883;-31
2023/12/13 09:35:30;;;;;;;;;8.00;7.00;;;;;21.78;48.03;99713.01;112018;1264;21074;-31
2023/12/13 09:37:58;;;;;;;;;10.00;8.00;;;;;21.82;48.19;99719.34;112045;1264;20638;-31
2023/12/13 09:40:25;;;;;;;;;11.00;11.00;;;;;21.79;48.26;99716.30;112006;1264;19991;-31
2023/12/13 09:42:53;;;;;;;;;9.33;9.33;;;;;21.78;48.30;99718.88;111961;1248;20766;-31
2023/12/13 09:45:21;;;;;;;;;10.00;8.00;;;;;21.79;48.54;99722.35;112024;1248;20281;-30
2023/12/13 09:47:49;;;;;;;;;7.00;7.00;;;;;21.79;48.69;99721.48;111997;1250;18781;-31
2023/12/13 09:50:16;;;;;;;;;10.50;10.00;;;;;21.77;48.68;99721.14;111999;1250;20830;-31
2023/12/13 09:52:43;;;;;;;;;8.00;7.50;;;;;21.80;48.52;99716.23;112006;1264;18183;-32
2023/12/13 09:55:11;;;;;;;;;13.00;10.50;;;;;21.75;48.84;99713.98;111988;1256;19926;-31
2023/12/13 09:57:39;;;;;;;;;7.67;7.00;;;;;21.75;48.65;99709.80;111970;1264;19550;-31
2023/12/13 10:00:06;;;;;;;;;8.00;8.00;;;;;21.77;48.49;99705.39;111987;1264;19899;-31
2023/12/13 10:02:34;;;;;;;;;8.00;7.00;;;;;21.76;48.56;99699.35;111952;1264;19951;-31
2023/12/13 10:05:01;;;;;;;;;8.00;8.00;;;;;21.76;48.78;99697.83;112000;1264;19706;-31
2023/12/13 10:07:29;;;;;;;;;7.00;7.00;;;;;21.75;48.43;99699.38;111970;1248;19551;-31
2023/12/13 10:09:56;;;;;;;;;10.00;9.00;;;;;21.81;48.38;99697.91;112004;1264;18797;-31
2023/12/13 10:12:24;;;;;;;;;10.00;8.00;;;;;21.84;49.17;99694.73;111980;1264;21041;-32
2023/12/13 10:14:51;;;;;;;;;7.67;6.33;;;;;21.86;50.69;99694.96;112028;1250;20163;-31
2023/12/13 10:17:19;;;;;;;;;8.00;7.00;;;;;21.83;50.35;99692.94;111984;1264;20082;-31
2023/12/13 10:19:47;;;;;;;;;8.00;8.00;;;;;21.90;50.05;99695.87;112047;1249;22376;-30
2023/12/13 10:22:15;;;;;;;;;8.00;8.00;;;;;21.87;50.18;99696.35;111949;1264;20629;-31
2023/12/13 10:24:42;;;;;;;;;7.67;7.00;;;;;21.87;50.27;99695.31;112000;1264;20379;-31
2023/12/13 10:27:10;;;;;;;;;8.00;7.00;;;;;21.86;49.91;99694.69;112019;1264;19378;-31
2023/12/13 10:29:38;;;;;;;;;10.00;8.00;;;;;21.83;49.99;99686.39;111958;1264;19488;-31
2023/12/13 10:32:05;;;;;;;;;7.67;5.00;;;;;21.83;49.89;99686.20;112023;1264;18844;-35
2023/12/13 10:34:32;;;;;;;;;9.00;7.00;;;;;21.85;49.94;99686.41;111971;1264;19389;-30
2023/12/13 10:37:00;;;;;;;;;9.00;8.00;;;;;21.86;49.92;99683.89;112021;1264;18299;-31
2023/12/13 10:39:28;;;;;;;;;5.00;5.00;;;;;21.82;50.15;99680.27;111922;1264;19058;-30
2023/12/13 10:41:55;;;;;;;;;8.00;7.00;;;;;21.85;50.15;99669.52;111868;1250;19770;-30
2023/12/13 10:44:23;;;;;;;;;6.33;5.67;;;;;21.86;49.70;99669.48;111863;1264;18332;-32
2023/12/13 10:46:55;;;;;;;;;8.00;7.33;;;;;21.84;49.95;99669.66;111834;1264;20326;-30
2023/12/13 10:49:23;;;;;;;;;8.00;8.00;;;;;21.82;49.72;99668.70;111878;1253;20759;-30
2023/12/13 10:51:50;;;;;;;;;7.00;7.00;;;;;21.85;49.66;99665.83;111868;1249;19686;-30
2023/12/13 10:54:18;;;;;;;;;11.00;5.00;;;;;21.87;49.80;99659.01;111873;1256;18790;-30
2023/12/13 10:56:45;;;;;;;;;5.00;5.00;;;;;21.87;49.53;99658.89;111865;1264;21278;-30
2023/12/13 10:59:13;;;;;;;;;8.00;8.00;;;;;21.88;49.89;99658.70;111898;1264;18556;-30
2023/12/13 11:01:41;;;;;;;;;7.00;7.00;;;;;21.89;49.79;99660.77;111898;1256;18784;-30
2023/12/13 11:04:10;;;;;;;;;4.00;4.00;;;;;21.85;49.89;99657.42;111896;1264;19503;-30
2023/12/13 11:06:37;;;;;;;;;5.00;5.00;;;;;21.82;49.86;99658.89;111922;1250;19625;-30
2023/12/13 11:09:05;;;;;;;;;4.00;4.00;;;;;21.87;49.63;99660.52;111975;1248;20764;-30
2023/12/13 11:11:34;;;;;;;;;7.50;7.50;;;;;21.82;49.54;99656.39;112010;1256;20818;-30
2023/12/13 11:14:01;;;;;;;;;7.00;5.00;;;;;21.83;49.77;99659.32;112037;1264;19722;-30
2023/12/13 11:16:29;;;;;;;;;7.00;7.00;;;;;21.84;49.73;99657.27;111933;1264;19378;-30
2023/12/13 11:18:56;;;;;;;;;11.00;10.00;;;;;21.83;49.13;99652.88;112081;1249;20813;-30
2023/12/13 11:21:26;;;;;;;;;8.00;8.00;;;;;21.78;49.43;99654.39;111937;1264;19490;-30
2023/12/13 11:23:54;;;;;;;;;7.50;7.50;;;;;21.82;49.04;99654.09;112000;1264;21392;-29